createdAt,value
2023-03-26T00:03:20.481Z,9.13
2023-03-26T00:08:24.437Z,11.18
2023-03-26T00:13:28.234Z,9.93
2023-03-26T00:18:31.891Z,9.48
2023-03-26T00:28:40.413Z,10.55
2023-03-26T00:33:43.706Z,11.07
2023-03-26T00:38:49.502Z,10.15
2023-03-26T00:43:56.215Z,9.35
2023-03-26T00:48:59.766Z,11.77
2023-03-26T01:04:28.122Z,11.70
2023-03-26T01:09:36.047Z,10.75
2023-03-26T01:14:39.145Z,11.05
2023-03-26T01:19:48.597Z,12.75
2023-03-26T01:24:56.202Z,11.98
2023-03-26T01:30:06.772Z,10.88
2023-03-26T01:35:21.315Z,12.23
2023-03-26T01:40:29.362Z,10.85
2023-03-26T01:45:35.916Z,12.75
2023-03-26T01:50:38.567Z,12.35
2023-03-26T01:55:53.882Z,10.50
2023-03-26T02:01:04.354Z,10.90
2023-03-26T02:06:15.720Z,10.82
2023-03-26T02:11:20.091Z,12.23
2023-03-26T02:16:22.734Z,11.18
2023-03-26T02:21:27.178Z,11.37
2023-03-26T02:26:33.164Z,10.38
2023-03-26T02:31:35.902Z,12.80
2023-03-26T02:36:42.880Z,11.67
2023-03-26T02:41:46.869Z,13.13
2023-03-26T02:46:51.484Z,10.32
2023-03-26T02:51:56.380Z,10.70
2023-03-26T02:57:00.501Z,11.02
2023-03-26T03:02:03.307Z,11.30
2023-03-26T03:07:07.944Z,12.97
2023-03-26T03:12:11.882Z,12.05
2023-03-26T03:17:14.420Z,11.48
2023-03-26T03:22:16.986Z,10.55
2023-03-26T03:27:22.327Z,12.13
2023-03-26T03:32:24.971Z,12.50
2023-03-26T03:37:27.594Z,10.13
2023-03-26T03:42:31.581Z,10.77
2023-03-26T03:47:34.427Z,10.75
2023-03-26T03:52:37.078Z,11.30
2023-03-26T03:57:41.248Z,11.67
2023-03-26T04:02:46.136Z,11.13
2023-03-26T04:07:48.843Z,11.45
2023-03-26T04:12:52.855Z,11.47
2023-03-26T04:17:55.507Z,10.52
2023-03-26T04:22:58.112Z,10.80
2023-03-26T04:28:14.917Z,11.53
2023-03-26T04:33:17.531Z,12.95
2023-03-26T04:38:20.133Z,14.67
2023-03-26T04:43:24.018Z,10.87
2023-03-26T04:48:27.543Z,11.00
2023-03-26T04:58:43.427Z,12.15
2023-03-26T05:03:46.251Z,13.50
2023-03-26T05:08:51.108Z,12.88
2023-03-26T05:13:55.045Z,12.77
2023-03-26T05:18:57.573Z,12.77
2023-03-26T05:24:00.528Z,13.02
2023-03-26T05:29:05.692Z,14.45
2023-03-26T05:34:08.291Z,12.02
2023-03-26T05:39:10.929Z,14.53
2023-03-26T05:44:14.867Z,14.43
2023-03-26T05:49:17.503Z,14.95
2023-03-26T05:54:20.102Z,14.23
2023-03-26T05:59:24.229Z,13.10
2023-03-26T06:04:28.645Z,12.52
2023-03-26T06:09:31.559Z,16.27
2023-03-26T06:14:35.546Z,14.20
2023-03-26T06:19:38.254Z,14.18
2023-03-26T06:24:41.921Z,15.57
2023-03-26T06:29:45.922Z,13.38
2023-03-26T06:34:49.565Z,13.07
2023-03-26T06:39:52.245Z,13.70
2023-03-26T06:44:56.364Z,14.87
2023-03-26T06:49:59.121Z,14.18
2023-03-26T06:55:10.723Z,14.97
2023-03-26T07:00:35.597Z,15.02
2023-03-26T07:05:39.552Z,15.75
2023-03-26T07:10:42.435Z,15.85
2023-03-26T07:15:51.745Z,16.45
2023-03-26T07:20:56.288Z,14.68
2023-03-26T07:26:03.375Z,15.10
2023-03-26T07:31:25.000Z,16.55
2023-03-26T07:36:36.098Z,16.85
2023-03-26T07:41:47.177Z,15.82
2023-03-26T07:46:53.372Z,17.40
2023-03-26T07:51:57.779Z,21.38
2023-03-26T07:57:05.983Z,16.70
2023-03-26T08:02:41.301Z,17.90
2023-03-26T08:07:57.222Z,14.48
2023-03-26T08:13:11.587Z,16.80
2023-03-26T08:18:27.714Z,16.60
2023-03-26T08:23:36.025Z,13.32
2023-03-26T08:29:03.968Z,15.00
2023-03-26T08:34:12.101Z,13.18
2023-03-26T08:39:16.133Z,13.80
2023-03-26T08:45:09.246Z,12.52
2023-03-26T08:50:41.293Z,11.63
2023-03-26T08:55:53.788Z,11.93
2023-03-26T09:01:27.716Z,10.18
2023-03-26T09:07:06.862Z,10.90
2023-03-26T09:12:40.793Z,10.13
2023-03-26T09:18:16.988Z,9.50
2023-03-26T09:23:32.142Z,10.15
2023-03-26T09:29:18.032Z,8.57
2023-03-26T09:34:29.965Z,7.78
2023-03-26T09:39:43.711Z,8.10
2023-03-26T09:45:21.072Z,8.50
2023-03-26T09:50:36.914Z,9.85
2023-03-26T09:55:52.294Z,8.27
2023-03-26T10:01:05.672Z,8.13
2023-03-26T10:06:28.226Z,7.43
2023-03-26T10:11:52.606Z,8.10
2023-03-26T10:17:07.656Z,7.93
2023-03-26T10:22:25.343Z,8.25
2023-03-26T10:27:44.943Z,8.68
2023-03-26T10:32:56.490Z,7.07
2023-03-26T10:38:14.643Z,8.77
2023-03-26T10:43:38.798Z,8.00
2023-03-26T10:49:01.029Z,7.75
2023-03-26T10:54:12.153Z,7.95
2023-03-26T10:59:17.982Z,9.02
2023-03-26T11:04:31.870Z,8.23
2023-03-26T11:09:40.215Z,7.88
2023-03-26T11:14:54.682Z,8.80
2023-03-26T11:20:04.418Z,8.88
2023-03-26T11:25:35.883Z,8.40
2023-03-26T11:30:47.968Z,7.50
2023-03-26T11:35:52.363Z,6.43
2023-03-26T11:40:59.091Z,6.05
2023-03-26T11:46:05.972Z,4.97
2023-03-26T11:51:14.816Z,5.78
2023-03-26T11:56:29.738Z,6.03
2023-03-26T12:01:50.431Z,6.20
2023-03-26T12:06:57.929Z,5.88
2023-03-26T12:12:03.539Z,8.85
2023-03-26T12:17:10.397Z,5.65
2023-03-26T12:22:30.686Z,4.93
2023-03-26T12:27:33.458Z,4.22
2023-03-26T12:32:46.738Z,4.43
2023-03-26T12:37:49.703Z,5.20
2023-03-26T12:44:45.936Z,5.77
2023-03-26T12:48:25.524Z,5.85
2023-03-26T12:53:42.991Z,5.15
2023-03-26T12:59:06.883Z,4.20
2023-03-26T13:04:28.772Z,4.13
2023-03-26T13:09:54.065Z,5.03
2023-03-26T13:15:09.809Z,5.43
2023-03-26T13:20:29.099Z,4.88
2023-03-26T13:25:38.938Z,4.35
2023-03-26T13:30:50.063Z,3.95
2023-03-26T13:36:24.069Z,3.80
2023-03-26T13:41:41.389Z,3.35
2023-03-26T13:46:48.503Z,4.07
2023-03-26T13:51:59.764Z,3.55
2023-03-26T13:57:13.277Z,3.60
2023-03-26T14:02:27.989Z,2.83
2023-03-26T14:07:40.234Z,2.63
2023-03-26T14:12:52.448Z,3.00
2023-03-26T14:18:06.237Z,3.55
2023-03-26T14:23:27.533Z,3.72
2023-03-26T14:28:56.136Z,3.17
2023-03-26T14:34:35.010Z,2.50
2023-03-26T14:40:23.131Z,3.47
2023-03-26T14:45:44.982Z,5.22
2023-03-26T14:51:08.166Z,3.83
2023-03-26T14:56:43.566Z,2.78
2023-03-26T15:02:39.498Z,4.03
2023-03-26T15:13:35.344Z,3.38
2023-03-26T15:19:17.856Z,2.63
2023-03-26T15:24:50.885Z,3.13
2023-03-26T15:30:25.016Z,3.42
2023-03-26T15:35:57.482Z,2.70
2023-03-26T15:41:16.581Z,3.20
2023-03-26T15:46:35.941Z,3.90
2023-03-26T15:51:47.726Z,3.13
2023-03-26T15:57:17.595Z,2.85
2023-03-26T16:02:37.437Z,4.07
2023-03-26T16:07:53.675Z,3.03
2023-03-26T16:13:23.835Z,2.85
2023-03-26T16:18:30.587Z,3.63
2023-03-26T16:23:47.803Z,2.97
2023-03-26T16:29:18.061Z,3.33
2023-03-26T16:34:27.976Z,4.43
2023-03-26T16:39:42.349Z,3.58
2023-03-26T16:44:52.919Z,5.07
2023-03-26T16:50:10.649Z,4.18
2023-03-26T16:55:27.307Z,3.53
2023-03-26T17:00:48.071Z,3.85
2023-03-26T17:06:06.346Z,2.92
2023-03-26T17:11:22.929Z,3.13
2023-03-26T17:16:31.121Z,3.58
2023-03-26T17:21:47.348Z,3.28
2023-03-26T17:26:58.394Z,2.63
2023-03-26T17:32:08.676Z,2.92
2023-03-26T17:37:28.991Z,3.53
2023-03-26T17:42:33.636Z,3.58
2023-03-26T17:47:40.384Z,3.70
2023-03-26T17:52:53.989Z,2.90
2023-03-26T17:57:58.884Z,4.15
2023-03-26T18:03:05.514Z,4.28
2023-03-26T18:08:37.069Z,6.60
2023-03-26T18:13:55.481Z,3.90
2023-03-26T18:19:00.631Z,5.53
2023-03-26T18:24:06.964Z,3.97
2023-03-26T18:29:14.092Z,4.65
2023-03-26T18:34:18.830Z,3.10
2023-03-26T18:39:22.713Z,4.28
2023-03-26T18:44:25.419Z,3.03
2023-03-26T18:49:29.750Z,3.53
2023-03-26T18:54:36.630Z,4.03
2023-03-26T18:59:45.441Z,2.92
2023-03-26T19:04:50.248Z,4.35
2023-03-26T19:09:56.668Z,4.13
2023-03-26T19:15:07.676Z,3.58
2023-03-26T19:20:16.397Z,3.63
2023-03-26T19:25:24.593Z,3.22
2023-03-26T19:30:31.747Z,3.72
2023-03-26T19:35:38.718Z,4.07
2023-03-26T19:40:44.816Z,3.80
2023-03-26T19:46:00.487Z,5.10
2023-03-26T19:51:06.137Z,5.30
2023-03-26T19:56:18.768Z,3.17
2023-03-26T20:01:23.825Z,3.08
2023-03-26T20:06:42.452Z,3.15
2023-03-26T20:11:47.463Z,3.75
2023-03-26T20:16:50.130Z,4.75
2023-03-26T20:21:52.808Z,3.77
2023-03-26T20:26:56.730Z,4.28
2023-03-26T20:31:59.292Z,3.85
2023-03-26T20:37:01.904Z,4.10
2023-03-26T20:42:06.271Z,4.20
2023-03-26T20:47:10.455Z,4.80
2023-03-26T20:52:15.399Z,3.42
2023-03-26T20:57:20.166Z,4.13
2023-03-26T21:02:23.387Z,4.38
2023-03-26T21:07:27.068Z,4.55
2023-03-26T21:17:37.488Z,3.00
2023-03-26T21:22:47.020Z,3.35
2023-03-26T21:28:01.390Z,2.97
2023-03-26T21:33:05.256Z,3.83
2023-03-26T21:38:09.381Z,3.58
2023-03-26T21:43:13.966Z,4.13
2023-03-26T21:48:18.303Z,3.30
2023-03-26T21:53:22.357Z,2.80
2023-03-26T21:58:42.494Z,2.67
2023-03-26T22:03:56.217Z,4.57
2023-03-26T22:09:00.787Z,2.20
2023-03-26T22:14:04.944Z,3.58
2023-03-26T22:19:07.498Z,3.53
2023-03-26T22:24:10.078Z,2.72
2023-03-26T22:29:14.195Z,3.03
2023-03-26T22:34:16.760Z,2.95
2023-03-26T22:39:19.408Z,2.80
2023-03-26T22:44:23.347Z,2.88
2023-03-26T22:49:27.471Z,2.85
2023-03-26T22:54:30.042Z,3.08
2023-03-26T22:59:33.968Z,4.85
2023-03-26T23:04:37.692Z,2.80
2023-03-26T23:09:40.365Z,2.88
2023-03-26T23:14:44.442Z,2.88
2023-03-26T23:19:46.963Z,2.45
2023-03-26T23:24:49.565Z,2.88
2023-03-26T23:29:53.552Z,2.90
2023-03-26T23:34:56.399Z,2.75
2023-03-26T23:40:00.448Z,2.57
2023-03-26T23:45:04.468Z,3.00
2023-03-26T23:50:08.191Z,2.83
2023-03-26T23:55:10.949Z,2.58
